createdAt,value
2023-08-17T00:04:02.569Z,1.23
2023-08-17T00:09:25.643Z,1.25
2023-08-17T00:14:47.524Z,1.50
2023-08-17T00:20:11.182Z,1.30
2023-08-17T00:25:33.020Z,1.35
2023-08-17T00:30:55.227Z,1.00
2023-08-17T00:36:17.050Z,1.00
2023-08-17T00:41:38.996Z,1.15
2023-08-17T00:47:01.145Z,1.00
2023-08-17T00:52:23.080Z,1.05
2023-08-17T00:57:45.189Z,1.10
2023-08-17T01:03:07.364Z,1.25
2023-08-17T01:08:30.562Z,1.23
2023-08-17T01:13:59.453Z,1.10
2023-08-17T01:19:29.103Z,0.98
2023-08-17T01:24:51.078Z,1.30
2023-08-17T01:30:16.218Z,1.08
2023-08-17T01:35:46.935Z,1.02
2023-08-17T01:41:16.598Z,1.00
2023-08-17T01:46:39.328Z,1.00
2023-08-17T01:52:02.244Z,1.05
2023-08-17T01:57:24.215Z,1.20
2023-08-17T02:02:46.507Z,1.08
2023-08-17T02:08:09.225Z,1.10
2023-08-17T02:13:31.070Z,1.10
2023-08-17T02:18:52.970Z,1.00
2023-08-17T02:24:14.878Z,0.90
2023-08-17T02:29:36.706Z,1.00
2023-08-17T02:34:58.551Z,1.00
2023-08-17T02:40:20.488Z,1.15
2023-08-17T02:45:42.508Z,1.00
2023-08-17T02:51:04.556Z,0.77
2023-08-17T02:56:26.600Z,0.80
2023-08-17T03:01:48.573Z,0.90
2023-08-17T03:07:10.483Z,0.82
2023-08-17T03:12:32.432Z,1.00
2023-08-17T03:17:54.365Z,0.80
2023-08-17T03:23:16.267Z,1.10
2023-08-17T03:28:38.339Z,0.80
2023-08-17T03:34:01.670Z,0.80
2023-08-17T03:39:23.603Z,0.90
2023-08-17T03:44:45.500Z,1.00
2023-08-17T03:50:08.287Z,1.02
2023-08-17T03:55:30.191Z,0.80
2023-08-17T04:00:53.083Z,1.10
2023-08-17T04:06:15.494Z,1.00
2023-08-17T04:11:38.077Z,0.85
2023-08-17T04:17:00.068Z,1.17
2023-08-17T04:22:21.947Z,0.82
2023-08-17T04:27:43.865Z,0.93
2023-08-17T04:33:06.499Z,0.75
2023-08-17T04:38:28.650Z,1.20
2023-08-17T04:43:50.772Z,0.88
2023-08-17T04:49:12.699Z,0.98
2023-08-17T04:54:35.418Z,0.85
2023-08-17T04:59:57.349Z,0.98
2023-08-17T05:05:19.377Z,0.95
2023-08-17T05:10:41.329Z,0.80
2023-08-17T05:16:03.207Z,0.90
2023-08-17T05:21:25.217Z,0.98
2023-08-17T05:26:47.291Z,0.90
2023-08-17T05:32:09.416Z,0.90
2023-08-17T05:37:31.333Z,1.00
2023-08-17T05:42:53.188Z,0.75
2023-08-17T05:48:15.223Z,0.70
2023-08-17T05:53:37.109Z,0.73
2023-08-17T05:58:59.032Z,0.93
2023-08-17T06:04:22.121Z,1.05
2023-08-17T06:09:43.996Z,0.77
2023-08-17T06:15:06.494Z,0.73
2023-08-17T06:20:28.390Z,0.93
2023-08-17T06:25:50.516Z,0.88
2023-08-17T06:31:16.203Z,0.75
2023-08-17T06:36:40.849Z,0.70
2023-08-17T06:42:02.896Z,0.80
2023-08-17T06:47:25.229Z,1.05
2023-08-17T06:52:47.298Z,1.00
2023-08-17T06:58:09.206Z,0.65
2023-08-17T07:03:31.244Z,0.80
2023-08-17T07:08:54.093Z,1.10
2023-08-17T07:14:16.447Z,1.00
2023-08-17T07:19:59.411Z,0.70
2023-08-17T07:25:20.169Z,0.70
2023-08-17T07:30:42.166Z,0.60
2023-08-17T07:36:04.469Z,1.00
2023-08-17T07:41:27.384Z,1.00
2023-08-17T07:46:49.409Z,0.82
2023-08-17T07:52:11.294Z,0.95
2023-08-17T07:57:33.225Z,1.00
2023-08-17T08:02:55.278Z,1.17
2023-08-17T08:08:18.873Z,1.00
2023-08-17T08:13:40.714Z,1.10
2023-08-17T08:19:02.968Z,0.90
2023-08-17T08:24:36.777Z,0.93
2023-08-17T08:30:00.132Z,0.90
2023-08-17T08:35:23.739Z,0.70
2023-08-17T08:40:48.324Z,1.00
2023-08-17T08:46:10.826Z,1.13
2023-08-17T08:51:35.747Z,0.90
2023-08-17T08:57:04.818Z,0.98
2023-08-17T09:02:27.060Z,0.80
2023-08-17T09:07:50.922Z,1.15
2023-08-17T09:13:13.043Z,1.35
2023-08-17T09:18:39.356Z,1.23
2023-08-17T09:24:01.527Z,1.45
2023-08-17T09:29:24.480Z,1.50
2023-08-17T09:34:49.076Z,1.20
2023-08-17T09:40:11.508Z,1.20
2023-08-17T09:45:34.630Z,1.23
2023-08-17T09:50:59.955Z,1.35
2023-08-17T10:01:47.420Z,1.33
2023-08-17T10:07:12.437Z,1.38
2023-08-17T10:12:39.512Z,1.40
2023-08-17T10:18:16.546Z,1.30
2023-08-17T10:23:42.874Z,1.92
2023-08-17T10:34:35.879Z,1.92
2023-08-17T10:39:57.876Z,1.73
2023-08-17T10:45:39.308Z,1.65
2023-08-17T10:51:04.846Z,1.63
2023-08-17T10:56:29.754Z,1.65
2023-08-17T11:01:53.013Z,1.60
2023-08-17T11:07:17.424Z,1.70
2023-08-17T11:12:39.721Z,1.80
2023-08-17T11:18:01.728Z,1.70
2023-08-17T11:23:26.024Z,1.60
2023-08-17T11:28:48.588Z,1.80
2023-08-17T11:34:16.661Z,1.65
2023-08-17T11:39:38.940Z,1.70
2023-08-17T11:45:00.904Z,1.70
2023-08-17T11:50:22.870Z,2.10
2023-08-17T11:55:45.410Z,1.73
2023-08-17T12:01:10.662Z,1.70
2023-08-17T12:12:01.488Z,2.00
2023-08-17T12:17:23.404Z,1.80
2023-08-17T12:22:45.646Z,1.38
2023-08-17T12:28:07.648Z,1.55
2023-08-17T12:33:29.795Z,1.77
2023-08-17T12:38:52.006Z,1.90
2023-08-17T12:44:17.737Z,1.67
2023-08-17T12:49:40.233Z,1.65
2023-08-17T12:55:02.596Z,1.90
2023-08-17T13:00:24.448Z,2.03
2023-08-17T13:05:46.362Z,1.60
2023-08-17T13:11:08.368Z,2.17
2023-08-17T13:16:30.405Z,2.50
2023-08-17T13:21:52.361Z,2.38
2023-08-17T13:27:14.382Z,2.25
2023-08-17T13:32:36.623Z,2.30
2023-08-17T13:37:59.026Z,2.20
2023-08-17T13:43:20.879Z,2.25
2023-08-17T13:48:42.965Z,2.17
2023-08-17T13:54:05.217Z,2.50
2023-08-17T13:59:27.265Z,2.60
2023-08-17T14:04:49.211Z,2.60
2023-08-17T14:10:18.590Z,2.75
2023-08-17T14:15:43.579Z,2.47
2023-08-17T14:21:05.525Z,2.58
2023-08-17T14:26:27.469Z,2.97
2023-08-17T14:31:56.087Z,2.90
2023-08-17T14:37:18.295Z,2.90
2023-08-17T14:42:40.120Z,2.83
2023-08-17T14:48:02.115Z,3.15
2023-08-17T14:53:23.975Z,3.03
2023-08-17T14:58:45.834Z,3.30
2023-08-17T15:04:07.725Z,3.10
2023-08-17T15:09:30.317Z,3.05
2023-08-17T15:14:52.285Z,2.72
2023-08-17T15:20:14.341Z,3.85
2023-08-17T15:25:36.373Z,3.10
2023-08-17T15:31:03.758Z,3.67
2023-08-17T15:36:27.790Z,3.55
2023-08-17T15:41:49.745Z,3.42
2023-08-17T15:47:11.636Z,3.22
2023-08-17T15:52:33.529Z,3.25
2023-08-17T15:57:55.566Z,4.00
2023-08-17T16:03:17.608Z,3.65
2023-08-17T16:14:09.071Z,3.55
2023-08-17T16:19:30.897Z,3.33
2023-08-17T16:24:52.763Z,3.70
2023-08-17T16:30:14.684Z,3.55
2023-08-17T16:35:37.609Z,3.30
2023-08-17T16:40:59.532Z,3.58
2023-08-17T16:46:21.548Z,3.35
2023-08-17T16:51:43.488Z,3.17
2023-08-17T16:57:05.490Z,3.33
2023-08-17T17:02:27.405Z,3.35
2023-08-17T17:07:49.418Z,3.30
2023-08-17T17:13:11.695Z,3.25
2023-08-17T17:18:33.658Z,3.80
2023-08-17T17:23:55.644Z,3.38
2023-08-17T17:29:17.633Z,3.47
2023-08-17T17:34:39.590Z,3.33
2023-08-17T17:40:01.544Z,3.60
2023-08-17T17:45:23.786Z,3.25
2023-08-17T17:50:46.233Z,3.13
2023-08-17T17:56:12.283Z,3.60
2023-08-17T18:01:34.697Z,3.88
2023-08-17T18:06:56.569Z,3.50
2023-08-17T18:12:18.399Z,3.80
2023-08-17T18:17:40.797Z,4.43
2023-08-17T18:23:03.297Z,3.88
2023-08-17T18:28:25.185Z,3.72
2023-08-17T18:33:47.240Z,3.80
2023-08-17T18:39:09.581Z,4.35
2023-08-17T18:44:31.618Z,3.92
2023-08-17T18:49:53.476Z,4.00
2023-08-17T18:55:15.644Z,4.10
2023-08-17T19:00:38.453Z,4.03
2023-08-17T19:06:00.439Z,4.30
2023-08-17T19:11:22.283Z,3.80
2023-08-17T19:16:44.214Z,4.55
2023-08-17T19:22:06.415Z,4.20
2023-08-17T19:27:28.762Z,4.32
2023-08-17T19:32:58.795Z,4.10
2023-08-17T19:38:20.821Z,4.00
2023-08-17T19:43:42.694Z,4.28
2023-08-17T19:49:05.542Z,4.00
2023-08-17T19:54:27.392Z,4.15
2023-08-17T19:59:49.465Z,4.43
2023-08-17T20:05:11.592Z,4.45
2023-08-17T20:10:33.447Z,3.90
2023-08-17T20:15:56.269Z,4.30
2023-08-17T20:21:18.166Z,4.68
2023-08-17T20:26:40.081Z,4.45
2023-08-17T20:32:02.065Z,4.15
2023-08-17T20:37:24.078Z,4.43
2023-08-17T20:42:45.932Z,4.35
2023-08-17T20:48:08.038Z,4.43
2023-08-17T20:53:29.875Z,4.50
2023-08-17T20:58:51.871Z,4.05
2023-08-17T21:04:13.812Z,4.20
2023-08-17T21:09:35.758Z,4.53
2023-08-17T21:14:58.948Z,4.13
2023-08-17T21:20:21.001Z,4.18
2023-08-17T21:25:50.092Z,4.45
2023-08-17T21:31:12.156Z,4.20
2023-08-17T21:36:34.183Z,4.00
2023-08-17T21:41:56.112Z,4.63
2023-08-17T21:47:18.087Z,4.40
2023-08-17T21:52:39.987Z,4.55
2023-08-17T21:58:02.355Z,4.90
2023-08-17T22:03:24.308Z,5.32
2023-08-17T22:08:46.299Z,5.22
2023-08-17T22:14:08.143Z,5.00
2023-08-17T22:19:30.724Z,4.63
2023-08-17T22:24:52.606Z,4.88
2023-08-17T22:30:14.632Z,5.10
2023-08-17T22:35:36.489Z,4.65
2023-08-17T22:40:58.475Z,4.68
2023-08-17T22:46:20.536Z,4.78
2023-08-17T22:51:43.081Z,5.40
2023-08-17T22:57:05.223Z,5.13
2023-08-17T23:02:27.223Z,5.28
2023-08-17T23:07:49.401Z,5.20
2023-08-17T23:13:11.373Z,5.22
2023-08-17T23:18:33.330Z,5.60
2023-08-17T23:23:55.187Z,4.88
2023-08-17T23:29:17.109Z,5.45
2023-08-17T23:34:38.985Z,5.18
2023-08-17T23:40:01.201Z,5.88
2023-08-17T23:45:23.353Z,4.90
2023-08-17T23:50:45.392Z,5.32
2023-08-17T23:56:08.482Z,5.07
